sensor_id;sensor_type;location;lat;lon;timestamp;P1;durP1;ratioP1;P2;durP2;ratioP2
28028;SDS011;15345;59.364;18.016;2023-11-21T00:00:46;5.30;;;4.68;;
28028;SDS011;15345;59.364;18.016;2023-11-21T00:02:05;6.75;;;4.82;;
28028;SDS011;15345;59.364;18.016;2023-11-21T00:03:24;5.38;;;4.88;;
28028;SDS011;15345;59.364;18.016;2023-11-21T00:04:43;6.88;;;4.60;;
28028;SDS011;15345;59.364;18.016;2023-11-21T00:06:02;5.72;;;4.63;;
28028;SDS011;15345;59.364;18.016;2023-11-21T00:07:21;6.05;;;5.07;;
28028;SDS011;15345;59.364;18.016;2023-11-21T00:47:19;7.22;;;5.68;;
28028;SDS011;15345;59.364;18.016;2023-11-21T00:48:38;11.18;;;5.65;;
28028;SDS011;15345;59.364;18.016;2023-11-21T00:49:57;7.10;;;5.35;;
28028;SDS011;15345;59.364;18.016;2023-11-21T00:51:16;7.13;;;5.78;;
28028;SDS011;15345;59.364;18.016;2023-11-21T00:52:35;6.57;;;4.78;;
28028;SDS011;15345;59.364;18.016;2023-11-21T00:53:55;6.03;;;5.32;;
28028;SDS011;15345;59.364;18.016;2023-11-21T00:55:14;9.55;;;5.72;;
28028;SDS011;15345;59.364;18.016;2023-11-21T00:56:33;6.70;;;5.53;;
28028;SDS011;15345;59.364;18.016;2023-11-21T00:57:52;6.72;;;5.05;;
28028;SDS011;15345;59.364;18.016;2023-11-21T00:59:11;7.55;;;5.53;;
28028;SDS011;15345;59.364;18.016;2023-11-21T01:00:30;5.85;;;4.78;;
28028;SDS011;15345;59.364;18.016;2023-11-21T01:01:49;6.57;;;5.00;;
28028;SDS011;15345;59.364;18.016;2023-11-21T01:03:08;5.38;;;4.88;;
28028;SDS011;15345;59.364;18.016;2023-11-21T01:04:27;6.13;;;5.15;;
28028;SDS011;15345;59.364;18.016;2023-11-21T01:05:46;8.07;;;5.45;;
28028;SDS011;15345;59.364;18.016;2023-11-21T01:07:04;7.53;;;4.93;;
28028;SDS011;15345;59.364;18.016;2023-11-21T01:08:24;5.50;;;4.72;;
28028;SDS011;15345;59.364;18.016;2023-11-21T01:09:43;5.82;;;5.03;;
28028;SDS011;15345;59.364;18.016;2023-11-21T01:11:03;7.18;;;4.85;;
28028;SDS011;15345;59.364;18.016;2023-11-21T01:12:22;5.38;;;4.45;;
28028;SDS011;15345;59.364;18.016;2023-11-21T01:13:43;6.47;;;5.78;;
28028;SDS011;15345;59.364;18.016;2023-11-21T01:15:04;5.38;;;4.68;;
28028;SDS011;15345;59.364;18.016;2023-11-21T01:16:26;6.05;;;5.40;;
28028;SDS011;15345;59.364;18.016;2023-11-21T01:17:47;6.38;;;4.78;;
28028;SDS011;15345;59.364;18.016;2023-11-21T01:19:06;6.35;;;5.28;;
28028;SDS011;15345;59.364;18.016;2023-11-21T01:20:24;5.50;;;4.90;;
28028;SDS011;15345;59.364;18.016;2023-11-21T01:21:43;6.07;;;5.43;;
28028;SDS011;15345;59.364;18.016;2023-11-21T01:23:02;5.63;;;5.00;;
28028;SDS011;15345;59.364;18.016;2023-11-21T01:24:21;5.47;;;4.97;;
28028;SDS011;15345;59.364;18.016;2023-11-21T01:25:40;6.53;;;4.78;;
28028;SDS011;15345;59.364;18.016;2023-11-21T01:26:59;7.13;;;4.90;;
28028;SDS011;15345;59.364;18.016;2023-11-21T01:28:18;6.63;;;5.15;;
28028;SDS011;15345;59.364;18.016;2023-11-21T01:29:38;6.53;;;5.63;;
28028;SDS011;15345;59.364;18.016;2023-11-21T01:30:57;7.28;;;5.75;;
28028;SDS011;15345;59.364;18.016;2023-11-21T01:32:17;7.32;;;5.60;;
28028;SDS011;15345;59.364;18.016;2023-11-21T01:33:35;5.90;;;5.22;;
28028;SDS011;15345;59.364;18.016;2023-11-21T01:34:54;7.43;;;5.75;;
28028;SDS011;15345;59.364;18.016;2023-11-21T01:36:13;6.95;;;5.32;;
28028;SDS011;15345;59.364;18.016;2023-11-21T01:37:32;7.57;;;5.38;;
28028;SDS011;15345;59.364;18.016;2023-11-21T01:38:52;7.35;;;5.80;;
28028;SDS011;15345;59.364;18.016;2023-11-21T01:40:10;7.85;;;5.60;;
28028;SDS011;15345;59.364;18.016;2023-11-21T01:41:32;5.88;;;5.10;;
28028;SDS011;15345;59.364;18.016;2023-11-21T01:42:52;6.85;;;5.43;;
28028;SDS011;15345;59.364;18.016;2023-11-21T01:44:11;6.50;;;5.60;;
28028;SDS011;15345;59.364;18.016;2023-11-21T01:45:32;6.75;;;5.40;;
28028;SDS011;15345;59.364;18.016;2023-11-21T01:46:53;6.78;;;5.70;;
28028;SDS011;15345;59.364;18.016;2023-11-21T01:48:13;6.97;;;5.63;;
28028;SDS011;15345;59.364;18.016;2023-11-21T01:49:32;6.53;;;5.80;;
28028;SDS011;15345;59.364;18.016;2023-11-21T01:50:52;5.85;;;5.25;;
28028;SDS011;15345;59.364;18.016;2023-11-21T01:52:11;5.57;;;5.00;;
28028;SDS011;15345;59.364;18.016;2023-11-21T01:53:30;6.55;;;5.32;;
28028;SDS011;15345;59.364;18.016;2023-11-21T01:54:49;5.75;;;4.78;;
28028;SDS011;15345;59.364;18.016;2023-11-21T01:56:08;6.10;;;5.18;;
28028;SDS011;15345;59.364;18.016;2023-11-21T01:57:28;6.70;;;5.32;;
28028;SDS011;15345;59.364;18.016;2023-11-21T01:58:48;6.30;;;5.30;;
28028;SDS011;15345;59.364;18.016;2023-11-21T02:00:07;6.82;;;5.88;;
28028;SDS011;15345;59.364;18.016;2023-11-21T02:01:36;8.93;;;5.00;;
28028;SDS011;15345;59.364;18.016;2023-11-21T02:02:55;6.35;;;5.75;;
28028;SDS011;15345;59.364;18.016;2023-11-21T02:04:14;5.20;;;4.70;;
28028;SDS011;15345;59.364;18.016;2023-11-21T02:05:33;5.72;;;5.13;;
28028;SDS011;15345;59.364;18.016;2023-11-21T02:06:52;5.22;;;4.72;;
28028;SDS011;15345;59.364;18.016;2023-11-21T02:08:11;6.07;;;5.47;;
28028;SDS011;15345;59.364;18.016;2023-11-21T02:09:30;6.65;;;4.80;;
28028;SDS011;15345;59.364;18.016;2023-11-21T02:10:49;5.43;;;4.70;;
28028;SDS011;15345;59.364;18.016;2023-11-21T02:12:08;5.10;;;4.70;;
28028;SDS011;15345;59.364;18.016;2023-11-21T02:13:29;5.57;;;5.07;;
28028;SDS011;15345;59.364;18.016;2023-11-21T02:14:48;5.43;;;4.88;;
28028;SDS011;15345;59.364;18.016;2023-11-21T02:16:07;5.60;;;5.10;;
28028;SDS011;15345;59.364;18.016;2023-11-21T02:17:29;5.18;;;4.72;;
28028;SDS011;15345;59.364;18.016;2023-11-21T02:18:48;5.45;;;5.03;;
28028;SDS011;15345;59.364;18.016;2023-11-21T02:20:07;5.57;;;5.00;;
28028;SDS011;15345;59.364;18.016;2023-11-21T02:21:30;5.65;;;5.07;;
28028;SDS011;15345;59.364;18.016;2023-11-21T02:22:50;5.18;;;4.40;;
28028;SDS011;15345;59.364;18.016;2023-11-21T02:24:11;6.57;;;5.30;;
28028;SDS011;15345;59.364;18.016;2023-11-21T02:25:31;5.15;;;4.65;;
28028;SDS011;15345;59.364;18.016;2023-11-21T02:26:56;6.38;;;4.85;;
28028;SDS011;15345;59.364;18.016;2023-11-21T02:28:14;5.68;;;5.15;;
28028;SDS011;15345;59.364;18.016;2023-11-21T02:29:36;5.60;;;5.00;;
28028;SDS011;15345;59.364;18.016;2023-11-21T02:30:56;7.00;;;5.43;;
28028;SDS011;15345;59.364;18.016;2023-11-21T02:32:17;5.40;;;4.93;;
28028;SDS011;15345;59.364;18.016;2023-11-21T02:33:37;6.85;;;5.00;;
28028;SDS011;15345;59.364;18.016;2023-11-21T02:34:57;5.78;;;5.28;;
28028;SDS011;15345;59.364;18.016;2023-11-21T02:37:40;5.20;;;4.70;;
28028;SDS011;15345;59.364;18.016;2023-11-21T02:38:59;5.25;;;4.75;;
28028;SDS011;15345;59.364;18.016;2023-11-21T02:40:18;5.53;;;4.97;;
28028;SDS011;15345;59.364;18.016;2023-11-21T02:41:39;5.28;;;4.82;;
28028;SDS011;15345;59.364;18.016;2023-11-21T02:42:58;5.32;;;4.82;;
28028;SDS011;15345;59.364;18.016;2023-11-21T02:44:18;5.70;;;5.10;;
28028;SDS011;15345;59.364;18.016;2023-11-21T02:45:36;5.68;;;4.50;;
28028;SDS011;15345;59.364;18.016;2023-11-21T02:46:55;6.07;;;5.45;;
28028;SDS011;15345;59.364;18.016;2023-11-21T02:48:16;4.80;;;4.32;;
28028;SDS011;15345;59.364;18.016;2023-11-21T02:49:35;5.28;;;4.88;;
28028;SDS011;15345;59.364;18.016;2023-11-21T02:50:54;5.18;;;4.68;;
28028;SDS011;15345;59.364;18.016;2023-11-21T02:52:13;4.85;;;4.45;;
28028;SDS011;15345;59.364;18.016;2023-11-21T02:53:32;5.07;;;4.68;;
28028;SDS011;15345;59.364;18.016;2023-11-21T02:54:51;5.50;;;5.00;;
28028;SDS011;15345;59.364;18.016;2023-11-21T02:56:10;5.07;;;4.68;;
28028;SDS011;15345;59.364;18.016;2023-11-21T02:57:29;5.90;;;4.90;;
28028;SDS011;15345;59.364;18.016;2023-11-21T02:58:48;4.75;;;4.35;;
28028;SDS011;15345;59.364;18.016;2023-11-21T03:00:07;4.90;;;4.50;;
28028;SDS011;15345;59.364;18.016;2023-11-21T03:01:26;5.40;;;4.90;;
28028;SDS011;15345;59.364;18.016;2023-11-21T03:02:46;5.45;;;4.95;;
28028;SDS011;15345;59.364;18.016;2023-11-21T03:04:06;5.32;;;4.65;;
28028;SDS011;15345;59.364;18.016;2023-11-21T03:05:25;5.88;;;4.63;;
28028;SDS011;15345;59.364;18.016;2023-11-21T03:06:44;5.32;;;4.82;;
28028;SDS011;15345;59.364;18.016;2023-11-21T03:08:04;5.97;;;4.88;;
28028;SDS011;15345;59.364;18.016;2023-11-21T03:09:23;5.65;;;5.22;;
28028;SDS011;15345;59.364;18.016;2023-11-21T03:10:42;5.22;;;4.75;;
28028;SDS011;15345;59.364;18.016;2023-11-21T03:12:01;5.80;;;4.90;;
28028;SDS011;15345;59.364;18.016;2023-11-21T03:13:20;5.38;;;4.90;;
28028;SDS011;15345;59.364;18.016;2023-11-21T03:14:39;5.75;;;5.18;;
28028;SDS011;15345;59.364;18.016;2023-11-21T03:15:58;5.75;;;4.60;;
28028;SDS011;15345;59.364;18.016;2023-11-21T03:17:17;5.53;;;5.03;;
28028;SDS011;15345;59.364;18.016;2023-11-21T03:18:37;5.57;;;5.07;;
28028;SDS011;15345;59.364;18.016;2023-11-21T03:19:56;5.53;;;5.03;;
28028;SDS011;15345;59.364;18.016;2023-11-21T03:21:15;5.72;;;5.22;;
28028;SDS011;15345;59.364;18.016;2023-11-21T03:22:34;6.05;;;5.53;;
28028;SDS011;15345;59.364;18.016;2023-11-21T03:23:53;6.00;;;5.43;;
28028;SDS011;15345;59.364;18.016;2023-11-21T03:25:12;6.80;;;5.55;;
28028;SDS011;15345;59.364;18.016;2023-11-21T03:26:31;6.20;;;5.60;;
28028;SDS011;15345;59.364;18.016;2023-11-21T03:27:50;6.22;;;5.30;;
28028;SDS011;15345;59.364;18.016;2023-11-21T03:29:10;6.20;;;5.55;;
28028;SDS011;15345;59.364;18.016;2023-11-21T03:30:29;6.10;;;5.50;;
28028;SDS011;15345;59.364;18.016;2023-11-21T03:31:48;5.78;;;5.28;;
28028;SDS011;15345;59.364;18.016;2023-11-21T03:33:07;6.38;;;5.78;;
28028;SDS011;15345;59.364;18.016;2023-11-21T03:34:26;6.53;;;5.35;;
28028;SDS011;15345;59.364;18.016;2023-11-21T03:35:45;6.28;;;5.63;;
28028;SDS011;15345;59.364;18.016;2023-11-21T03:37:04;6.03;;;5.50;;
28028;SDS011;15345;59.364;18.016;2023-11-21T03:38:23;6.47;;;5.65;;
28028;SDS011;15345;59.364;18.016;2023-11-21T03:39:42;6.10;;;5.45;;
28028;SDS011;15345;59.364;18.016;2023-11-21T03:41:02;8.57;;;5.68;;
28028;SDS011;15345;59.364;18.016;2023-11-21T03:42:21;5.95;;;5.35;;
28028;SDS011;15345;59.364;18.016;2023-11-21T03:43:40;6.35;;;5.75;;
28028;SDS011;15345;59.364;18.016;2023-11-21T03:44:59;6.32;;;5.72;;
28028;SDS011;15345;59.364;18.016;2023-11-21T03:46:17;7.13;;;6.05;;
28028;SDS011;15345;59.364;18.016;2023-11-21T03:47:36;7.35;;;6.45;;
28028;SDS011;15345;59.364;18.016;2023-11-21T03:48:55;6.00;;;5.40;;
28028;SDS011;15345;59.364;18.016;2023-11-21T03:50:14;7.13;;;6.03;;
28028;SDS011;15345;59.364;18.016;2023-11-21T03:51:33;8.02;;;6.43;;
28028;SDS011;15345;59.364;18.016;2023-11-21T03:52:52;6.70;;;5.97;;
28028;SDS011;15345;59.364;18.016;2023-11-21T03:54:11;7.85;;;6.10;;
28028;SDS011;15345;59.364;18.016;2023-11-21T03:55:30;6.20;;;5.57;;
28028;SDS011;15345;59.364;18.016;2023-11-21T03:56:49;6.53;;;5.88;;
28028;SDS011;15345;59.364;18.016;2023-11-21T03:58:09;7.30;;;5.80;;
28028;SDS011;15345;59.364;18.016;2023-11-21T03:59:27;6.82;;;5.93;;
28028;SDS011;15345;59.364;18.016;2023-11-21T04:00:47;7.43;;;6.15;;
28028;SDS011;15345;59.364;18.016;2023-11-21T04:02:08;6.60;;;5.90;;
28028;SDS011;15345;59.364;18.016;2023-11-21T04:03:27;9.63;;;6.53;;
28028;SDS011;15345;59.364;18.016;2023-11-21T04:04:46;6.47;;;5.82;;
28028;SDS011;15345;59.364;18.016;2023-11-21T04:06:05;8.20;;;5.75;;
28028;SDS011;15345;59.364;18.016;2023-11-21T04:07:25;6.22;;;5.63;;
28028;SDS011;15345;59.364;18.016;2023-11-21T04:08:44;5.93;;;5.07;;
28028;SDS011;15345;59.364;18.016;2023-11-21T04:10:07;6.25;;;5.57;;
28028;SDS011;15345;59.364;18.016;2023-11-21T04:11:27;7.82;;;5.55;;
28028;SDS011;15345;59.364;18.016;2023-11-21T04:12:48;6.00;;;5.43;;
28028;SDS011;15345;59.364;18.016;2023-11-21T04:14:08;6.05;;;5.45;;
28028;SDS011;15345;59.364;18.016;2023-11-21T04:15:27;5.63;;;5.13;;
28028;SDS011;15345;59.364;18.016;2023-11-21T04:16:46;5.72;;;5.20;;
28028;SDS011;15345;59.364;18.016;2023-11-21T04:18:05;5.53;;;5.00;;
28028;SDS011;15345;59.364;18.016;2023-11-21T04:19:24;5.40;;;4.90;;
28028;SDS011;15345;59.364;18.016;2023-11-21T04:20:43;5.85;;;5.10;;
28028;SDS011;15345;59.364;18.016;2023-11-21T04:22:02;7.63;;;5.30;;
28028;SDS011;15345;59.364;18.016;2023-11-21T04:23:21;5.85;;;5.20;;
28028;SDS011;15345;59.364;18.016;2023-11-21T04:24:40;5.43;;;4.93;;
28028;SDS011;15345;59.364;18.016;2023-11-21T04:25:58;5.80;;;5.20;;
28028;SDS011;15345;59.364;18.016;2023-11-21T04:27:17;5.82;;;5.18;;
28028;SDS011;15345;59.364;18.016;2023-11-21T04:28:36;6.50;;;4.85;;
28028;SDS011;15345;59.364;18.016;2023-11-21T04:29:55;5.88;;;5.20;;
28028;SDS011;15345;59.364;18.016;2023-11-21T04:31:14;6.25;;;4.70;;
28028;SDS011;15345;59.364;18.016;2023-11-21T04:32:33;5.93;;;4.57;;
28028;SDS011;15345;59.364;18.016;2023-11-21T04:33:55;4.57;;;4.18;;
28028;SDS011;15345;59.364;18.016;2023-11-21T04:35:14;4.75;;;4.35;;
28028;SDS011;15345;59.364;18.016;2023-11-21T04:36:33;5.38;;;4.47;;
28028;SDS011;15345;59.364;18.016;2023-11-21T04:37:53;5.07;;;4.55;;
28028;SDS011;15345;59.364;18.016;2023-11-21T04:39:12;4.63;;;4.22;;
28028;SDS011;15345;59.364;18.016;2023-11-21T04:40:31;5.95;;;4.65;;
28028;SDS011;15345;59.364;18.016;2023-11-21T04:41:50;4.70;;;3.80;;
28028;SDS011;15345;59.364;18.016;2023-11-21T04:43:08;4.97;;;3.80;;
28028;SDS011;15345;59.364;18.016;2023-11-21T04:44:27;6.35;;;4.00;;
28028;SDS011;15345;59.364;18.016;2023-11-21T04:45:46;4.35;;;4.05;;
28028;SDS011;15345;59.364;18.016;2023-11-21T04:47:05;4.53;;;4.15;;
28028;SDS011;15345;59.364;18.016;2023-11-21T04:48:24;4.18;;;3.88;;
28028;SDS011;15345;59.364;18.016;2023-11-21T04:49:44;3.50;;;3.30;;
28028;SDS011;15345;59.364;18.016;2023-11-21T04:51:05;4.47;;;4.07;;
28028;SDS011;15345;59.364;18.016;2023-11-21T04:52:25;4.47;;;3.83;;
28028;SDS011;15345;59.364;18.016;2023-11-21T04:53:44;4.47;;;3.72;;
28028;SDS011;15345;59.364;18.016;2023-11-21T04:55:03;4.43;;;3.60;;
28028;SDS011;15345;59.364;18.016;2023-11-21T04:56:22;4.28;;;3.75;;
28028;SDS011;15345;59.364;18.016;2023-11-21T04:57:41;3.83;;;3.53;;
28028;SDS011;15345;59.364;18.016;2023-11-21T04:59:04;4.05;;;3.75;;
28028;SDS011;15345;59.364;18.016;2023-11-21T05:00:23;4.32;;;3.50;;
28028;SDS011;15345;59.364;18.016;2023-11-21T05:01:42;4.00;;;3.60;;
28028;SDS011;15345;59.364;18.016;2023-11-21T05:03:02;3.95;;;3.65;;
28028;SDS011;15345;59.364;18.016;2023-11-21T05:04:21;4.13;;;3.83;;
28028;SDS011;15345;59.364;18.016;2023-11-21T05:05:41;4.00;;;3.70;;
28028;SDS011;15345;59.364;18.016;2023-11-21T05:07:00;4.13;;;3.83;;
28028;SDS011;15345;59.364;18.016;2023-11-21T05:08:19;4.05;;;3.72;;
28028;SDS011;15345;59.364;18.016;2023-11-21T05:09:41;4.10;;;3.80;;
28028;SDS011;15345;59.364;18.016;2023-11-21T05:11:00;4.07;;;3.78;;
28028;SDS011;15345;59.364;18.016;2023-11-21T05:12:19;4.07;;;3.83;;
28028;SDS011;15345;59.364;18.016;2023-11-21T05:13:38;6.18;;;3.60;;
28028;SDS011;15345;59.364;18.016;2023-11-21T05:14:57;4.30;;;3.72;;
28028;SDS011;15345;59.364;18.016;2023-11-21T05:16:17;5.57;;;4.05;;
28028;SDS011;15345;59.364;18.016;2023-11-21T05:17:36;4.10;;;3.72;;
28028;SDS011;15345;59.364;18.016;2023-11-21T05:18:55;4.50;;;3.47;;
28028;SDS011;15345;59.364;18.016;2023-11-21T05:20:19;4.00;;;3.70;;
28028;SDS011;15345;59.364;18.016;2023-11-21T05:21:42;4.32;;;3.65;;
28028;SDS011;15345;59.364;18.016;2023-11-21T05:23:01;4.22;;;3.92;;
28028;SDS011;15345;59.364;18.016;2023-11-21T05:24:20;4.35;;;3.47;;
28028;SDS011;15345;59.364;18.016;2023-11-21T05:25:39;4.03;;;3.72;;
28028;SDS011;15345;59.364;18.016;2023-11-21T05:26:58;4.40;;;4.07;;
28028;SDS011;15345;59.364;18.016;2023-11-21T05:28:17;4.20;;;3.90;;
28028;SDS011;15345;59.364;18.016;2023-11-21T05:29:36;4.22;;;3.92;;
28028;SDS011;15345;59.364;18.016;2023-11-21T05:30:56;4.03;;;3.72;;
28028;SDS011;15345;59.364;18.016;2023-11-21T05:32:15;4.30;;;3.92;;
28028;SDS011;15345;59.364;18.016;2023-11-21T05:33:35;3.50;;;3.30;;
28028;SDS011;15345;59.364;18.016;2023-11-21T05:34:54;4.55;;;4.25;;
28028;SDS011;15345;59.364;18.016;2023-11-21T05:36:14;4.45;;;3.90;;
28028;SDS011;15345;59.364;18.016;2023-11-21T05:37:33;4.25;;;3.95;;
28028;SDS011;15345;59.364;18.016;2023-11-21T05:38:51;4.63;;;3.35;;
28028;SDS011;15345;59.364;18.016;2023-11-21T05:40:11;4.03;;;3.67;;
28028;SDS011;15345;59.364;18.016;2023-11-21T05:41:31;4.15;;;3.85;;
28028;SDS011;15345;59.364;18.016;2023-11-21T05:42:50;4.13;;;3.60;;
28028;SDS011;15345;59.364;18.016;2023-11-21T05:44:10;4.40;;;4.00;;
28028;SDS011;15345;59.364;18.016;2023-11-21T05:45:30;4.70;;;4.00;;
28028;SDS011;15345;59.364;18.016;2023-11-21T05:46:49;4.07;;;3.78;;
28028;SDS011;15345;59.364;18.016;2023-11-21T05:48:09;4.10;;;3.80;;
28028;SDS011;15345;59.364;18.016;2023-11-21T05:49:28;4.25;;;3.92;;
28028;SDS011;15345;59.364;18.016;2023-11-21T05:50:48;4.00;;;3.60;;
28028;SDS011;15345;59.364;18.016;2023-11-21T05:52:08;4.05;;;3.75;;
28028;SDS011;15345;59.364;18.016;2023-11-21T05:53:27;3.65;;;3.45;;
28028;SDS011;15345;59.364;18.016;2023-11-21T05:54:46;4.25;;;3.85;;
28028;SDS011;15345;59.364;18.016;2023-11-21T05:56:05;3.58;;;3.38;;
28028;SDS011;15345;59.364;18.016;2023-11-21T05:57:25;3.83;;;3.53;;
28028;SDS011;15345;59.364;18.016;2023-11-21T05:58:44;3.33;;;3.13;;
28028;SDS011;15345;59.364;18.016;2023-11-21T06:00:07;3.53;;;3.33;;
28028;SDS011;15345;59.364;18.016;2023-11-21T06:01:41;3.35;;;3.15;;
28028;SDS011;15345;59.364;18.016;2023-11-21T06:03:00;3.33;;;3.08;;
28028;SDS011;15345;59.364;18.016;2023-11-21T06:04:19;3.42;;;3.22;;
28028;SDS011;15345;59.364;18.016;2023-11-21T06:05:42;3.67;;;3.38;;
28028;SDS011;15345;59.364;18.016;2023-11-21T06:07:01;3.20;;;3.00;;
28028;SDS011;15345;59.364;18.016;2023-11-21T06:08:20;3.58;;;3.38;;
28028;SDS011;15345;59.364;18.016;2023-11-21T06:09:39;3.38;;;3.17;;
28028;SDS011;15345;59.364;18.016;2023-11-21T06:10:58;3.17;;;2.97;;
28028;SDS011;15345;59.364;18.016;2023-11-21T06:12:17;5.60;;;3.40;;
28028;SDS011;15345;59.364;18.016;2023-11-21T06:13:36;3.83;;;3.53;;
28028;SDS011;15345;59.364;18.016;2023-11-21T06:14:55;4.60;;;3.33;;
28028;SDS011;15345;59.364;18.016;2023-11-21T06:16:14;3.30;;;3.10;;
28028;SDS011;15345;59.364;18.016;2023-11-21T06:17:35;4.20;;;3.35;;
28028;SDS011;15345;59.364;18.016;2023-11-21T06:20:16;6.25;;;3.50;;
28028;SDS011;15345;59.364;18.016;2023-11-21T06:21:37;3.55;;;3.28;;
28028;SDS011;15345;59.364;18.016;2023-11-21T06:22:56;3.70;;;3.50;;
28028;SDS011;15345;59.364;18.016;2023-11-21T06:24:14;3.78;;;3.47;;
28028;SDS011;15345;59.364;18.016;2023-11-21T06:25:34;5.10;;;4.00;;
28028;SDS011;15345;59.364;18.016;2023-11-21T06:26:55;5.07;;;3.63;;
28028;SDS011;15345;59.364;18.016;2023-11-21T06:28:13;3.85;;;3.55;;
28028;SDS011;15345;59.364;18.016;2023-11-21T06:29:36;3.67;;;3.47;;
28028;SDS011;15345;59.364;18.016;2023-11-21T06:30:55;4.80;;;3.00;;
28028;SDS011;15345;59.364;18.016;2023-11-21T06:32:15;3.95;;;3.50;;
28028;SDS011;15345;59.364;18.016;2023-11-21T06:33:34;3.42;;;3.22;;
28028;SDS011;15345;59.364;18.016;2023-11-21T06:34:53;3.65;;;3.45;;
28028;SDS011;15345;59.364;18.016;2023-11-21T06:36:13;3.58;;;3.28;;
28028;SDS011;15345;59.364;18.016;2023-11-21T06:37:32;3.70;;;3.40;;
28028;SDS011;15345;59.364;18.016;2023-11-21T06:38:51;3.80;;;3.50;;
28028;SDS011;15345;59.364;18.016;2023-11-21T06:40:10;3.63;;;3.33;;
28028;SDS011;15345;59.364;18.016;2023-11-21T06:41:29;3.55;;;3.25;;
28028;SDS011;15345;59.364;18.016;2023-11-21T06:42:48;3.60;;;3.22;;
28028;SDS011;15345;59.364;18.016;2023-11-21T06:44:08;3.95;;;3.65;;
28028;SDS011;15345;59.364;18.016;2023-11-21T06:45:28;4.97;;;3.80;;
28028;SDS011;15345;59.364;18.016;2023-11-21T06:46:47;4.03;;;3.78;;
28028;SDS011;15345;59.364;18.016;2023-11-21T06:48:07;4.07;;;3.78;;
28028;SDS011;15345;59.364;18.016;2023-11-21T06:49:26;4.40;;;4.00;;
28028;SDS011;15345;59.364;18.016;2023-11-21T06:50:45;4.53;;;3.65;;
28028;SDS011;15345;59.364;18.016;2023-11-21T06:52:05;4.22;;;3.83;;
28028;SDS011;15345;59.364;18.016;2023-11-21T06:53:24;5.20;;;3.90;;
28028;SDS011;15345;59.364;18.016;2023-11-21T06:54:43;3.95;;;3.55;;
28028;SDS011;15345;59.364;18.016;2023-11-21T06:56:03;4.25;;;3.88;;
28028;SDS011;15345;59.364;18.016;2023-11-21T06:57:24;3.65;;;3.35;;
28028;SDS011;15345;59.364;18.016;2023-11-21T06:58:44;3.97;;;3.67;;
28028;SDS011;15345;59.364;18.016;2023-11-21T07:00:04;3.72;;;3.42;;
28028;SDS011;15345;59.364;18.016;2023-11-21T07:01:23;3.85;;;3.55;;
28028;SDS011;15345;59.364;18.016;2023-11-21T07:02:43;4.10;;;3.70;;
28028;SDS011;15345;59.364;18.016;2023-11-21T07:04:02;3.25;;;3.05;;
28028;SDS011;15345;59.364;18.016;2023-11-21T07:05:21;3.60;;;3.30;;
28028;SDS011;15345;59.364;18.016;2023-11-21T07:06:40;4.20;;;3.50;;
28028;SDS011;15345;59.364;18.016;2023-11-21T07:08:00;3.30;;;3.10;;
28028;SDS011;15345;59.364;18.016;2023-11-21T07:09:23;3.40;;;3.20;;
28028;SDS011;15345;59.364;18.016;2023-11-21T07:10:42;3.60;;;3.30;;
28028;SDS011;15345;59.364;18.016;2023-11-21T07:12:00;3.35;;;3.13;;
28028;SDS011;15345;59.364;18.016;2023-11-21T07:13:22;3.75;;;3.45;;
28028;SDS011;15345;59.364;18.016;2023-11-21T07:14:41;3.80;;;3.10;;
28028;SDS011;15345;59.364;18.016;2023-11-21T07:16:03;7.47;;;3.67;;
28028;SDS011;15345;59.364;18.016;2023-11-21T07:17:23;3.65;;;3.30;;
28028;SDS011;15345;59.364;18.016;2023-11-21T07:18:42;4.22;;;3.33;;
28028;SDS011;15345;59.364;18.016;2023-11-21T07:20:02;3.33;;;3.03;;
28028;SDS011;15345;59.364;18.016;2023-11-21T07:21:21;3.75;;;3.38;;
28028;SDS011;15345;59.364;18.016;2023-11-21T07:22:41;3.88;;;3.45;;
28028;SDS011;15345;59.364;18.016;2023-11-21T07:24:00;3.40;;;3.20;;
28028;SDS011;15345;59.364;18.016;2023-11-21T07:25:19;3.15;;;2.95;;
28028;SDS011;15345;59.364;18.016;2023-11-21T07:26:39;3.50;;;3.20;;
28028;SDS011;15345;59.364;18.016;2023-11-21T07:27:57;5.38;;;3.90;;
28028;SDS011;15345;59.364;18.016;2023-11-21T07:29:16;3.88;;;3.55;;
28028;SDS011;15345;59.364;18.016;2023-11-21T07:30:35;4.15;;;3.63;;
28028;SDS011;15345;59.364;18.016;2023-11-21T07:31:54;4.65;;;3.28;;
28028;SDS011;15345;59.364;18.016;2023-11-21T07:33:13;3.90;;;3.60;;
28028;SDS011;15345;59.364;18.016;2023-11-21T07:34:32;3.75;;;3.45;;
28028;SDS011;15345;59.364;18.016;2023-11-21T07:35:50;3.85;;;3.55;;
28028;SDS011;15345;59.364;18.016;2023-11-21T07:37:09;4.53;;;3.72;;
28028;SDS011;15345;59.364;18.016;2023-11-21T07:38:28;5.60;;;3.60;;
28028;SDS011;15345;59.364;18.016;2023-11-21T07:39:47;4.60;;;3.28;;
28028;SDS011;15345;59.364;18.016;2023-11-21T07:41:06;4.75;;;3.78;;
28028;SDS011;15345;59.364;18.016;2023-11-21T07:42:28;4.40;;;3.73;;
28028;SDS011;15345;59.364;18.016;2023-11-21T07:43:47;4.18;;;3.75;;
28028;SDS011;15345;59.364;18.016;2023-11-21T07:45:06;4.93;;;3.58;;
28028;SDS011;15345;59.364;18.016;2023-11-21T07:46:26;3.92;;;3.60;;
28028;SDS011;15345;59.364;18.016;2023-11-21T07:47:46;4.85;;;3.83;;
28028;SDS011;15345;59.364;18.016;2023-11-21T07:49:04;4.15;;;3.85;;
28028;SDS011;15345;59.364;18.016;2023-11-21T07:50:23;3.83;;;3.53;;
28028;SDS011;15345;59.364;18.016;2023-11-21T07:51:43;3.75;;;3.45;;
28028;SDS011;15345;59.364;18.016;2023-11-21T07:53:02;3.95;;;3.58;;
28028;SDS011;15345;59.364;18.016;2023-11-21T07:54:24;3.92;;;3.53;;
28028;SDS011;15345;59.364;18.016;2023-11-21T07:55:43;3.78;;;3.42;;
28028;SDS011;15345;59.364;18.016;2023-11-21T07:57:04;3.65;;;3.35;;
28028;SDS011;15345;59.364;18.016;2023-11-21T07:58:23;4.88;;;3.55;;
28028;SDS011;15345;59.364;18.016;2023-11-21T07:59:42;3.35;;;2.97;;
28028;SDS011;15345;59.364;18.016;2023-11-21T08:01:02;5.90;;;3.55;;
28028;SDS011;15345;59.364;18.016;2023-11-21T08:02:21;3.63;;;3.33;;
28028;SDS011;15345;59.364;18.016;2023-11-21T08:03:40;3.45;;;3.25;;
28028;SDS011;15345;59.364;18.016;2023-11-21T08:04:59;3.25;;;3.05;;
28028;SDS011;15345;59.364;18.016;2023-11-21T08:06:19;3.65;;;3.38;;
28028;SDS011;15345;59.364;18.016;2023-11-21T08:07:37;4.15;;;3.60;;
28028;SDS011;15345;59.364;18.016;2023-11-21T08:08:56;3.60;;;3.30;;
28028;SDS011;15345;59.364;18.016;2023-11-21T08:10:15;4.15;;;3.75;;
28028;SDS011;15345;59.364;18.016;2023-11-21T08:11:36;3.95;;;3.65;;
28028;SDS011;15345;59.364;18.016;2023-11-21T08:12:57;4.00;;;3.70;;
28028;SDS011;15345;59.364;18.016;2023-11-21T08:14:17;3.80;;;3.50;;
28028;SDS011;15345;59.364;18.016;2023-11-21T08:15:36;3.88;;;3.40;;
28028;SDS011;15345;59.364;18.016;2023-11-21T08:16:56;3.65;;;3.35;;
28028;SDS011;15345;59.364;18.016;2023-11-21T08:18:16;3.70;;;3.40;;
28028;SDS011;15345;59.364;18.016;2023-11-21T08:19:36;3.35;;;3.03;;
28028;SDS011;15345;59.364;18.016;2023-11-21T08:20:55;3.40;;;3.10;;
28028;SDS011;15345;59.364;18.016;2023-11-21T08:22:15;4.05;;;3.38;;
28028;SDS011;15345;59.364;18.016;2023-11-21T08:23:35;3.63;;;3.33;;
28028;SDS011;15345;59.364;18.016;2023-11-21T08:24:54;3.70;;;3.35;;
28028;SDS011;15345;59.364;18.016;2023-11-21T08:26:17;3.08;;;2.88;;
28028;SDS011;15345;59.364;18.016;2023-11-21T08:27:37;3.42;;;3.22;;
28028;SDS011;15345;59.364;18.016;2023-11-21T08:28:55;4.50;;;4.10;;
28028;SDS011;15345;59.364;18.016;2023-11-21T08:30:15;4.47;;;3.63;;
28028;SDS011;15345;59.364;18.016;2023-11-21T08:31:35;3.30;;;3.00;;
28028;SDS011;15345;59.364;18.016;2023-11-21T08:32:54;3.70;;;3.30;;